sensor_id;sensor_type;location;lat;lon;timestamp;temperature;humidity
66740;DHT22;53653;52.188;8.602;2022-09-27T00:01:05;10.90;94.40
66740;DHT22;53653;52.188;8.602;2022-09-27T00:03:31;10.93;94.31
66740;DHT22;53653;52.188;8.602;2022-09-27T00:06:05;10.97;94.18
66740;DHT22;53653;52.188;8.602;2022-09-27T00:08:32;10.94;94.19
66740;DHT22;53653;52.188;8.602;2022-09-27T00:11:04;10.96;94.21
66740;DHT22;53653;52.188;8.602;2022-09-27T00:13:30;10.91;94.32
66740;DHT22;53653;52.188;8.602;2022-09-27T00:16:00;10.93;93.83
66740;DHT22;53653;52.188;8.602;2022-09-27T00:18:28;10.91;93.92
66740;DHT22;53653;52.188;8.602;2022-09-27T00:20:55;10.85;93.90
66740;DHT22;53653;52.188;8.602;2022-09-27T00:23:20;10.83;94.02
66740;DHT22;53653;52.188;8.602;2022-09-27T00:25:58;10.84;94.08
66740;DHT22;53653;52.188;8.602;2022-09-27T00:28:24;10.83;94.10
66740;DHT22;53653;52.188;8.602;2022-09-27T00:30:50;10.85;94.13
66740;DHT22;53653;52.188;8.602;2022-09-27T00:33:16;10.87;94.10
66740;DHT22;53653;52.188;8.602;2022-09-27T00:35:42;10.83;94.22
66740;DHT22;53653;52.188;8.602;2022-09-27T00:38:08;10.83;94.42
66740;DHT22;53653;52.188;8.602;2022-09-27T00:40:33;10.83;94.45
66740;DHT22;53653;52.188;8.602;2022-09-27T00:42:59;10.80;94.53
66740;DHT22;53653;52.188;8.602;2022-09-27T00:45:24;10.81;94.58
66740;DHT22;53653;52.188;8.602;2022-09-27T00:48:00;10.83;94.54
66740;DHT22;53653;52.188;8.602;2022-09-27T00:50:40;10.85;94.62
66740;DHT22;53653;52.188;8.602;2022-09-27T00:53:32;10.85;94.47
66740;DHT22;53653;52.188;8.602;2022-09-27T00:56:05;10.85;94.57
66740;DHT22;53653;52.188;8.602;2022-09-27T00:58:35;10.83;94.60
66740;DHT22;53653;52.188;8.602;2022-09-27T01:01:06;10.84;94.64
66740;DHT22;53653;52.188;8.602;2022-09-27T01:03:50;10.87;94.56
66740;DHT22;53653;52.188;8.602;2022-09-27T01:06:18;10.90;94.58
66740;DHT22;53653;52.188;8.602;2022-09-27T01:08:44;10.91;94.48
66740;DHT22;53653;52.188;8.602;2022-09-27T01:13:52;10.93;94.54
66740;DHT22;53653;52.188;8.602;2022-09-27T01:30:13;11.11;93.58
66740;DHT22;53653;52.188;8.602;2022-09-27T01:33:21;11.11;93.58
66740;DHT22;53653;52.188;8.602;2022-09-27T01:35:51;11.11;93.70
66740;DHT22;53653;52.188;8.602;2022-09-27T01:43:58;11.00;94.40
66740;DHT22;53653;52.188;8.602;2022-09-27T01:46:32;11.05;94.27
66740;DHT22;53653;52.188;8.602;2022-09-27T01:49:04;11.07;94.05
66740;DHT22;53653;52.188;8.602;2022-09-27T01:51:45;11.03;94.08
66740;DHT22;53653;52.188;8.602;2022-09-27T01:54:16;11.05;93.96
66740;DHT22;53653;52.188;8.602;2022-09-27T01:56:51;11.11;93.46
66740;DHT22;53653;52.188;8.602;2022-09-27T01:59:26;11.11;93.48
66740;DHT22;53653;52.188;8.602;2022-09-27T02:01:55;11.11;93.50
66740;DHT22;53653;52.188;8.602;2022-09-27T02:04:26;11.10;93.63
66740;DHT22;53653;52.188;8.602;2022-09-27T02:06:58;11.07;93.37
66740;DHT22;53653;52.188;8.602;2022-09-27T02:09:40;11.01;93.51
66740;DHT22;53653;52.188;8.602;2022-09-27T02:12:12;11.04;93.51
66740;DHT22;53653;52.188;8.602;2022-09-27T02:14:57;11.03;92.85
66740;DHT22;53653;52.188;8.602;2022-09-27T02:17:34;11.00;93.02
66740;DHT22;53653;52.188;8.602;2022-09-27T02:23:08;10.98;92.84
66740;DHT22;53653;52.188;8.602;2022-09-27T02:25:45;10.91;93.15
66740;DHT22;53653;52.188;8.602;2022-09-27T02:28:17;10.96;92.73
66740;DHT22;53653;52.188;8.602;2022-09-27T02:30:46;10.90;92.84
66740;DHT22;53653;52.188;8.602;2022-09-27T02:33:11;10.90;92.64
66740;DHT22;53653;52.188;8.602;2022-09-27T02:35:37;10.85;92.60
66740;DHT22;53653;52.188;8.602;2022-09-27T02:38:04;10.85;92.71
66740;DHT22;53653;52.188;8.602;2022-09-27T02:40:35;10.83;92.64
66740;DHT22;53653;52.188;8.602;2022-09-27T02:43:06;10.77;92.91
66740;DHT22;53653;52.188;8.602;2022-09-27T02:49:07;10.73;93.22
66740;DHT22;53653;52.188;8.602;2022-09-27T03:00:21;10.78;92.97
66740;DHT22;53653;52.188;8.602;2022-09-27T03:03:08;10.80;92.82
66740;DHT22;53653;52.188;8.602;2022-09-27T03:05:41;10.74;93.15
66740;DHT22;53653;52.188;8.602;2022-09-27T03:08:09;10.70;93.35
66740;DHT22;53653;52.188;8.602;2022-09-27T03:10:35;10.67;93.47
66740;DHT22;53653;52.188;8.602;2022-09-27T03:13:01;10.73;93.24
66740;DHT22;53653;52.188;8.602;2022-09-27T03:15:26;10.73;93.24
66740;DHT22;53653;52.188;8.602;2022-09-27T03:17:52;10.70;93.22
66740;DHT22;53653;52.188;8.602;2022-09-27T03:20:17;10.73;93.27
66740;DHT22;53653;52.188;8.602;2022-09-27T03:22:43;10.74;93.33
66740;DHT22;53653;52.188;8.602;2022-09-27T03:25:08;10.73;93.37
66740;DHT22;53653;52.188;8.602;2022-09-27T03:27:34;10.74;93.24
66740;DHT22;53653;52.188;8.602;2022-09-27T03:29:59;10.71;93.08
66740;DHT22;53653;52.188;8.602;2022-09-27T03:32:25;10.68;93.22
66740;DHT22;53653;52.188;8.602;2022-09-27T03:34:51;10.66;93.18
66740;DHT22;53653;52.188;8.602;2022-09-27T03:37:19;10.66;93.27
66740;DHT22;53653;52.188;8.602;2022-09-27T03:39:44;10.63;93.14
66740;DHT22;53653;52.188;8.602;2022-09-27T03:42:10;10.60;93.38
66740;DHT22;53653;52.188;8.602;2022-09-27T03:44:35;10.64;93.32
66740;DHT22;53653;52.188;8.602;2022-09-27T03:47:01;10.61;93.09
66740;DHT22;53653;52.188;8.602;2022-09-27T03:49:26;10.59;93.40
66740;DHT22;53653;52.188;8.602;2022-09-27T03:51:52;10.60;93.41
66740;DHT22;53653;52.188;8.602;2022-09-27T03:54:17;10.60;93.16
66740;DHT22;53653;52.188;8.602;2022-09-27T03:56:43;10.63;92.85
66740;DHT22;53653;52.188;8.602;2022-09-27T03:59:09;10.57;92.92
66740;DHT22;53653;52.188;8.602;2022-09-27T04:01:35;10.56;92.88
66740;DHT22;53653;52.188;8.602;2022-09-27T04:04:03;10.56;92.67
66740;DHT22;53653;52.188;8.602;2022-09-27T04:06:29;10.57;92.72
66740;DHT22;53653;52.188;8.602;2022-09-27T04:08:55;10.55;92.57
66740;DHT22;53653;52.188;8.602;2022-09-27T04:11:20;10.50;92.70
66740;DHT22;53653;52.188;8.602;2022-09-27T04:13:48;10.55;92.64
66740;DHT22;53653;52.188;8.602;2022-09-27T04:16:14;10.53;92.48
66740;DHT22;53653;52.188;8.602;2022-09-27T04:18:41;10.50;92.54
66740;DHT22;53653;52.188;8.602;2022-09-27T04:21:06;10.48;92.33
66740;DHT22;53653;52.188;8.602;2022-09-27T04:23:31;10.48;92.37
66740;DHT22;53653;52.188;8.602;2022-09-27T04:25:57;10.46;92.24
66740;DHT22;53653;52.188;8.602;2022-09-27T04:28:23;10.46;92.37
66740;DHT22;53653;52.188;8.602;2022-09-27T04:30:48;10.43;92.34
66740;DHT22;53653;52.188;8.602;2022-09-27T04:33:14;10.42;92.44
66740;DHT22;53653;52.188;8.602;2022-09-27T04:35:39;10.42;92.38
66740;DHT22;53653;52.188;8.602;2022-09-27T04:38:24;10.45;91.99
66740;DHT22;53653;52.188;8.602;2022-09-27T04:40:50;10.40;91.89
66740;DHT22;53653;52.188;8.602;2022-09-27T04:43:16;10.40;92.07
66740;DHT22;53653;52.188;8.602;2022-09-27T04:45:44;10.38;91.77
66740;DHT22;53653;52.188;8.602;2022-09-27T04:48:10;10.38;91.77
66740;DHT22;53653;52.188;8.602;2022-09-27T04:50:35;10.35;91.89
66740;DHT22;53653;52.188;8.602;2022-09-27T04:53:02;10.35;91.80
66740;DHT22;53653;52.188;8.602;2022-09-27T04:55:28;10.32;92.13
66740;DHT22;53653;52.188;8.602;2022-09-27T04:57:53;10.32;92.06
66740;DHT22;53653;52.188;8.602;2022-09-27T05:00:19;10.36;91.72
66740;DHT22;53653;52.188;8.602;2022-09-27T05:02:45;10.33;91.59
66740;DHT22;53653;52.188;8.602;2022-09-27T05:05:13;10.25;91.98
66740;DHT22;53653;52.188;8.602;2022-09-27T05:07:38;10.18;92.27
66740;DHT22;53653;52.188;8.602;2022-09-27T05:10:05;10.15;92.40
66740;DHT22;53653;52.188;8.602;2022-09-27T05:12:30;10.08;92.51
66740;DHT22;53653;52.188;8.602;2022-09-27T05:14:56;10.08;92.96
66740;DHT22;53653;52.188;8.602;2022-09-27T05:17:21;10.13;92.71
66740;DHT22;53653;52.188;8.602;2022-09-27T05:19:48;10.12;92.59
66740;DHT22;53653;52.188;8.602;2022-09-27T05:22:13;10.11;92.66
66740;DHT22;53653;52.188;8.602;2022-09-27T05:24:39;10.09;92.48
66740;DHT22;53653;52.188;8.602;2022-09-27T05:27:05;10.06;92.35
66740;DHT22;53653;52.188;8.602;2022-09-27T05:29:33;10.01;92.38
66740;DHT22;53653;52.188;8.602;2022-09-27T05:32:02;10.08;92.61
66740;DHT22;53653;52.188;8.602;2022-09-27T05:34:28;10.09;92.07
66740;DHT22;53653;52.188;8.602;2022-09-27T05:36:53;10.08;92.09
66740;DHT22;53653;52.188;8.602;2022-09-27T05:39:18;10.02;91.69
66740;DHT22;53653;52.188;8.602;2022-09-27T05:41:45;10.01;91.85
66740;DHT22;53653;52.188;8.602;2022-09-27T05:44:10;10.02;91.67
66740;DHT22;53653;52.188;8.602;2022-09-27T05:46:37;10.05;91.95
66740;DHT22;53653;52.188;8.602;2022-09-27T05:49:03;10.03;91.38
66740;DHT22;53653;52.188;8.602;2022-09-27T05:51:29;10.01;91.20
66740;DHT22;53653;52.188;8.602;2022-09-27T05:53:55;10.02;91.45
66740;DHT22;53653;52.188;8.602;2022-09-27T05:56:20;10.05;91.23
66740;DHT22;53653;52.188;8.602;2022-09-27T05:58:45;10.06;91.03
66740;DHT22;53653;52.188;8.602;2022-09-27T06:01:11;10.03;90.97
66740;DHT22;53653;52.188;8.602;2022-09-27T06:03:36;9.98;90.99
66740;DHT22;53653;52.188;8.602;2022-09-27T06:06:03;10.02;91.17
66740;DHT22;53653;52.188;8.602;2022-09-27T06:08:36;10.01;90.64
66740;DHT22;53653;52.188;8.602;2022-09-27T06:11:08;10.05;90.82
66740;DHT22;53653;52.188;8.602;2022-09-27T06:13:34;10.06;90.77
66740;DHT22;53653;52.188;8.602;2022-09-27T06:16:08;10.03;90.52
66740;DHT22;53653;52.188;8.602;2022-09-27T06:18:34;10.06;90.55
66740;DHT22;53653;52.188;8.602;2022-09-27T06:21:01;10.09;90.65
66740;DHT22;53653;52.188;8.602;2022-09-27T06:23:29;10.09;90.91
66740;DHT22;53653;52.188;8.602;2022-09-27T06:26:05;10.15;90.61
66740;DHT22;53653;52.188;8.602;2022-09-27T06:28:32;10.19;90.53
66740;DHT22;53653;52.188;8.602;2022-09-27T06:30:59;10.20;90.16
66740;DHT22;53653;52.188;8.602;2022-09-27T06:33:26;10.19;89.73
66740;DHT22;53653;52.188;8.602;2022-09-27T06:35:54;10.20;89.88
66740;DHT22;53653;52.188;8.602;2022-09-27T06:38:20;10.20;89.93
66740;DHT22;53653;52.188;8.602;2022-09-27T06:40:46;10.20;89.80
66740;DHT22;53653;52.188;8.602;2022-09-27T06:43:16;10.16;89.55
66740;DHT22;53653;52.188;8.602;2022-09-27T06:45:42;10.16;89.80
66740;DHT22;53653;52.188;8.602;2022-09-27T06:48:09;10.12;89.70
66740;DHT22;53653;52.188;8.602;2022-09-27T06:50:37;10.12;89.74
66740;DHT22;53653;52.188;8.602;2022-09-27T06:53:04;10.12;89.48
66740;DHT22;53653;52.188;8.602;2022-09-27T06:55:30;10.09;89.41
66740;DHT22;53653;52.188;8.602;2022-09-27T06:57:58;10.12;89.40
66740;DHT22;53653;52.188;8.602;2022-09-27T07:00:43;10.12;89.00
66740;DHT22;53653;52.188;8.602;2022-09-27T07:03:12;10.08;88.87
66740;DHT22;53653;52.188;8.602;2022-09-27T07:05:39;10.11;88.04
66740;DHT22;53653;52.188;8.602;2022-09-27T07:08:06;10.12;88.31
66740;DHT22;53653;52.188;8.602;2022-09-27T07:10:34;10.16;88.20
66740;DHT22;53653;52.188;8.602;2022-09-27T07:13:07;10.28;87.89
66740;DHT22;53653;52.188;8.602;2022-09-27T07:15:34;10.49;87.16
66740;DHT22;53653;52.188;8.602;2022-09-27T07:18:04;10.52;86.80
66740;DHT22;53653;52.188;8.602;2022-09-27T07:20:31;10.59;86.73
66740;DHT22;53653;52.188;8.602;2022-09-27T07:22:57;10.64;86.43
66740;DHT22;53653;52.188;8.602;2022-09-27T07:25:24;10.68;86.40
66740;DHT22;53653;52.188;8.602;2022-09-27T07:27:51;10.66;86.25
66740;DHT22;53653;52.188;8.602;2022-09-27T07:30:20;10.67;86.33
66740;DHT22;53653;52.188;8.602;2022-09-27T07:32:46;10.67;85.87
66740;DHT22;53653;52.188;8.602;2022-09-27T07:35:12;11.04;85.09
66740;DHT22;53653;52.188;8.602;2022-09-27T07:37:41;11.00;85.60
66740;DHT22;53653;52.188;8.602;2022-09-27T07:40:08;10.93;85.50
66740;DHT22;53653;52.188;8.602;2022-09-27T07:42:35;10.88;85.89
66740;DHT22;53653;52.188;8.602;2022-09-27T07:45:06;10.93;85.39
66740;DHT22;53653;52.188;8.602;2022-09-27T07:47:32;10.98;84.97
66740;DHT22;53653;52.188;8.602;2022-09-27T07:49:58;10.98;85.49
66740;DHT22;53653;52.188;8.602;2022-09-27T07:52:23;11.00;85.30
66740;DHT22;53653;52.188;8.602;2022-09-27T07:54:49;11.10;84.93
66740;DHT22;53653;52.188;8.602;2022-09-27T07:57:16;11.18;84.59
66740;DHT22;53653;52.188;8.602;2022-09-27T07:59:41;11.24;84.15
66740;DHT22;53653;52.188;8.602;2022-09-27T08:02:15;11.29;84.01
66740;DHT22;53653;52.188;8.602;2022-09-27T08:04:41;11.36;83.93
66740;DHT22;53653;52.188;8.602;2022-09-27T08:07:11;11.46;82.79
66740;DHT22;53653;52.188;8.602;2022-09-27T08:09:36;11.36;83.01
66740;DHT22;53653;52.188;8.602;2022-09-27T08:12:02;11.18;83.56
66740;DHT22;53653;52.188;8.602;2022-09-27T08:14:29;11.42;82.45
66740;DHT22;53653;52.188;8.602;2022-09-27T08:16:55;12.24;81.05
66740;DHT22;53653;52.188;8.602;2022-09-27T08:19:20;12.97;79.64
66740;DHT22;53653;52.188;8.602;2022-09-27T08:21:46;12.83;78.02
66740;DHT22;53653;52.188;8.602;2022-09-27T08:24:12;12.75;77.81
66740;DHT22;53653;52.188;8.602;2022-09-27T08:26:38;12.82;78.12
66740;DHT22;53653;52.188;8.602;2022-09-27T08:29:04;12.49;78.35
66740;DHT22;53653;52.188;8.602;2022-09-27T08:31:29;12.38;79.82
66740;DHT22;53653;52.188;8.602;2022-09-27T08:33:54;12.55;79.23
66740;DHT22;53653;52.188;8.602;2022-09-27T08:36:22;12.63;77.89
66740;DHT22;53653;52.188;8.602;2022-09-27T08:38:51;12.65;77.61
66740;DHT22;53653;52.188;8.602;2022-09-27T08:44:08;12.82;77.24
66740;DHT22;53653;52.188;8.602;2022-09-27T08:47:01;12.55;77.09
66740;DHT22;53653;52.188;8.602;2022-09-27T08:52:18;12.96;77.13
66740;DHT22;53653;52.188;8.602;2022-09-27T08:54:45;12.76;76.96
66740;DHT22;53653;52.188;8.602;2022-09-27T08:57:12;12.55;77.26
66740;DHT22;53653;52.188;8.602;2022-09-27T08:59:49;12.83;77.14
66740;DHT22;53653;52.188;8.602;2022-09-27T09:02:20;13.03;76.27
66740;DHT22;53653;52.188;8.602;2022-09-27T09:04:49;13.61;74.82
66740;DHT22;53653;52.188;8.602;2022-09-27T09:26:46;12.21;79.97
66740;DHT22;53653;52.188;8.602;2022-09-27T09:37:38;12.37;78.41
66740;DHT22;53653;52.188;8.602;2022-09-27T09:40:19;12.56;78.12
66740;DHT22;53653;52.188;8.602;2022-09-27T09:43:12;12.45;78.49
66740;DHT22;53653;52.188;8.602;2022-09-27T09:45:42;12.17;79.70
66740;DHT22;53653;52.188;8.602;2022-09-27T09:50:43;11.76;80.85
66740;DHT22;53653;52.188;8.602;2022-09-27T09:53:11;11.76;80.74
66740;DHT22;53653;52.188;8.602;2022-09-27T09:55:40;12.42;79.04
66740;DHT22;53653;52.188;8.602;2022-09-27T09:58:22;13.81;74.37
66740;DHT22;53653;52.188;8.602;2022-09-27T10:00:50;14.91;71.44
66740;DHT22;53653;52.188;8.602;2022-09-27T10:03:17;15.59;68.32
66740;DHT22;53653;52.188;8.602;2022-09-27T10:05:44;16.15;63.84
66740;DHT22;53653;52.188;8.602;2022-09-27T10:08:20;16.79;62.03
66740;DHT22;53653;52.188;8.602;2022-09-27T10:10:46;16.81;60.20
66740;DHT22;53653;52.188;8.602;2022-09-27T10:13:18;16.15;61.47
66740;DHT22;53653;52.188;8.602;2022-09-27T10:15:52;15.49;64.65
66740;DHT22;53653;52.188;8.602;2022-09-27T10:18:19;15.50;64.74
66740;DHT22;53653;52.188;8.602;2022-09-27T10:20:51;15.23;66.44
66740;DHT22;53653;52.188;8.602;2022-09-27T10:23:21;15.23;65.27
66740;DHT22;53653;52.188;8.602;2022-09-27T10:25:57;16.04;62.20
66740;DHT22;53653;52.188;8.602;2022-09-27T10:28:41;16.66;60.47
66740;DHT22;53653;52.188;8.602;2022-09-27T10:31:11;16.76;59.53
66740;DHT22;53653;52.188;8.602;2022-09-27T10:34:01;16.93;59.19
66740;DHT22;53653;52.188;8.602;2022-09-27T10:36:28;17.30;58.79
66740;DHT22;53653;52.188;8.602;2022-09-27T10:39:18;17.04;59.18
66740;DHT22;53653;52.188;8.602;2022-09-27T10:41:43;15.36;63.15
66740;DHT22;53653;52.188;8.602;2022-09-27T10:46:41;14.09;65.70
66740;DHT22;53653;52.188;8.602;2022-09-27T10:49:30;13.68;67.11
66740;DHT22;53653;52.188;8.602;2022-09-27T10:52:01;14.17;66.89
66740;DHT22;53653;52.188;8.602;2022-09-27T10:54:35;13.77;66.90
66740;DHT22;53653;52.188;8.602;2022-09-27T10:59:30;13.27;67.93
66740;DHT22;53653;52.188;8.602;2022-09-27T11:01:57;13.55;68.67
66740;DHT22;53653;52.188;8.602;2022-09-27T11:04:32;13.86;67.86
66740;DHT22;53653;52.188;8.602;2022-09-27T11:07:15;14.25;67.77
66740;DHT22;53653;52.188;8.602;2022-09-27T11:09:53;14.70;66.56
66740;DHT22;53653;52.188;8.602;2022-09-27T11:12:19;15.12;67.51
66740;DHT22;53653;52.188;8.602;2022-09-27T11:15:04;14.73;67.95
66740;DHT22;53653;52.188;8.602;2022-09-27T11:17:38;15.09;66.96
66740;DHT22;53653;52.188;8.602;2022-09-27T11:20:22;14.87;68.48
66740;DHT22;53653;52.188;8.602;2022-09-27T11:28:37;15.63;64.90
66740;DHT22;53653;52.188;8.602;2022-09-27T11:31:24;15.36;63.57
66740;DHT22;53653;52.188;8.602;2022-09-27T11:44:52;14.04;68.29
66740;DHT22;53653;52.188;8.602;2022-09-27T11:50:19;13.69;70.75
66740;DHT22;53653;52.188;8.602;2022-09-27T12:03:50;13.43;69.81
66740;DHT22;53653;52.188;8.602;2022-09-27T12:06:25;13.30;69.67
66740;DHT22;53653;52.188;8.602;2022-09-27T12:11:58;13.30;70.33
66740;DHT22;53653;52.188;8.602;2022-09-27T12:14:35;13.41;70.05
66740;DHT22;53653;52.188;8.602;2022-09-27T12:17:06;13.50;69.86
66740;DHT22;53653;52.188;8.602;2022-09-27T12:19:39;13.46;70.13
66740;DHT22;53653;52.188;8.602;2022-09-27T12:22:13;13.48;70.98
66740;DHT22;53653;52.188;8.602;2022-09-27T12:24:40;13.33;70.30
66740;DHT22;53653;52.188;8.602;2022-09-27T12:27:09;13.31;71.29
66740;DHT22;53653;52.188;8.602;2022-09-27T12:29:40;13.30;71.05
66740;DHT22;53653;52.188;8.602;2022-09-27T12:32:25;13.19;70.89
66740;DHT22;53653;52.188;8.602;2022-09-27T12:35:00;12.92;71.20
66740;DHT22;53653;52.188;8.602;2022-09-27T12:37:31;12.44;74.27
66740;DHT22;53653;52.188;8.602;2022-09-27T12:42:56;12.08;78.70
66740;DHT22;53653;52.188;8.602;2022-09-27T12:46:00;12.20;79.27
66740;DHT22;53653;52.188;8.602;2022-09-27T12:48:53;12.42;79.89
66740;DHT22;53653;52.188;8.602;2022-09-27T12:51:22;12.85;79.41
66740;DHT22;53653;52.188;8.602;2022-09-27T12:59:50;13.83;75.87
66740;DHT22;53653;52.188;8.602;2022-09-27T13:02:59;13.62;75.57
66740;DHT22;53653;52.188;8.602;2022-09-27T13:14:05;12.86;77.68
66740;DHT22;53653;52.188;8.602;2022-09-27T13:16:44;12.16;75.30
66740;DHT22;53653;52.188;8.602;2022-09-27T13:19:43;11.73;76.90
66740;DHT22;53653;52.188;8.602;2022-09-27T13:22:35;11.52;78.06
66740;DHT22;53653;52.188;8.602;2022-09-27T13:25:01;11.24;79.63
66740;DHT22;53653;52.188;8.602;2022-09-27T13:32:33;11.21;80.32
66740;DHT22;53653;52.188;8.602;2022-09-27T13:35:20;11.17;79.99
66740;DHT22;53653;52.188;8.602;2022-09-27T13:37:52;11.12;79.63
66740;DHT22;53653;52.188;8.602;2022-09-27T13:45:26;11.22;80.67
66740;DHT22;53653;52.188;8.602;2022-09-27T13:47:54;11.25;80.54
66740;DHT22;53653;52.188;8.602;2022-09-27T13:53:16;11.35;81.21
66740;DHT22;53653;52.188;8.602;2022-09-27T13:55:49;11.49;80.53
66740;DHT22;53653;52.188;8.602;2022-09-27T14:00:51;11.77;80.58
66740;DHT22;53653;52.188;8.602;2022-09-27T14:05:58;12.14;80.15
66740;DHT22;53653;52.188;8.602;2022-09-27T14:10:54;12.30;78.58
66740;DHT22;53653;52.188;8.602;2022-09-27T14:13:21;12.42;79.16
66740;DHT22;53653;52.188;8.602;2022-09-27T14:15:48;12.45;78.36
66740;DHT22;53653;52.188;8.602;2022-09-27T14:18:14;12.44;78.64
66740;DHT22;53653;52.188;8.602;2022-09-27T14:20:45;12.48;79.02
66740;DHT22;53653;52.188;8.602;2022-09-27T14:23:18;12.46;79.33
66740;DHT22;53653;52.188;8.602;2022-09-27T14:25:46;12.31;79.42
66740;DHT22;53653;52.188;8.602;2022-09-27T14:28:24;12.16;79.42
66740;DHT22;53653;52.188;8.602;2022-09-27T14:31:16;12.10;80.07
66740;DHT22;53653;52.188;8.602;2022-09-27T14:33:43;12.00;79.71
66740;DHT22;53653;52.188;8.602;2022-09-27T14:36:24;11.72;79.08
66740;DHT22;53653;52.188;8.602;2022-09-27T14:39:21;11.63;80.30
66740;DHT22;53653;52.188;8.602;2022-09-27T14:41:47;11.65;79.76
66740;DHT22;53653;52.188;8.602;2022-09-27T14:44:17;11.56;79.32
66740;DHT22;53653;52.188;8.602;2022-09-27T14:46:44;11.55;79.53
66740;DHT22;53653;52.188;8.602;2022-09-27T14:49:23;11.49;79.38
66740;DHT22;53653;52.188;8.602;2022-09-27T14:51:53;11.38;79.10
66740;DHT22;53653;52.188;8.602;2022-09-27T14:54:24;11.39;79.61
66740;DHT22;53653;52.188;8.602;2022-09-27T14:56:52;11.38;80.29
66740;DHT22;53653;52.188;8.602;2022-09-27T14:59:27;11.42;79.71
66740;DHT22;53653;52.188;8.602;2022-09-27T15:01:59;11.42;80.50
66740;DHT22;53653;52.188;8.602;2022-09-27T15:04:28;11.40;80.05
66740;DHT22;53653;52.188;8.602;2022-09-27T15:06:56;11.39;80.25
66740;DHT22;53653;52.188;8.602;2022-09-27T15:09:23;11.38;79.91
66740;DHT22;53653;52.188;8.602;2022-09-27T15:11:54;11.34;80.45
66740;DHT22;53653;52.188;8.602;2022-09-27T15:14:20;11.38;80.58
66740;DHT22;53653;52.188;8.602;2022-09-27T15:16:47;11.39;80.31
66740;DHT22;53653;52.188;8.602;2022-09-27T15:21:43;11.36;80.46
66740;DHT22;53653;52.188;8.602;2022-09-27T15:27:23;11.46;79.87
66740;DHT22;53653;52.188;8.602;2022-09-27T15:29:51;11.59;80.23
66740;DHT22;53653;52.188;8.602;2022-09-27T15:32:20;11.58;79.23
66740;DHT22;53653;52.188;8.602;2022-09-27T15:34:46;11.59;77.74
66740;DHT22;53653;52.188;8.602;2022-09-27T15:37:36;11.56;78.02
66740;DHT22;53653;52.188;8.602;2022-09-27T15:42:58;11.43;75.63
66740;DHT22;53653;52.188;8.602;2022-09-27T15:45:29;11.42;74.78
66740;DHT22;53653;52.188;8.602;2022-09-27T15:48:14;11.34;76.08
66740;DHT22;53653;52.188;8.602;2022-09-27T15:50:40;11.28;78.48
66740;DHT22;53653;52.188;8.602;2022-09-27T15:53:07;11.35;78.41
66740;DHT22;53653;52.188;8.602;2022-09-27T15:55:39;11.36;79.02
66740;DHT22;53653;52.188;8.602;2022-09-27T15:58:06;11.34;79.63
66740;DHT22;53653;52.188;8.602;2022-09-27T16:00:34;11.29;80.27
66740;DHT22;53653;52.188;8.602;2022-09-27T16:03:00;11.22;80.63
66740;DHT22;53653;52.188;8.602;2022-09-27T16:05:26;11.22;80.44
66740;DHT22;53653;52.188;8.602;2022-09-27T16:07:53;11.15;80.81
66740;DHT22;53653;52.188;8.602;2022-09-27T16:10:23;11.12;81.23
66740;DHT22;53653;52.188;8.602;2022-09-27T16:12:49;11.08;81.80
66740;DHT22;53653;52.188;8.602;2022-09-27T16:15:15;11.10;81.64
66740;DHT22;53653;52.188;8.602;2022-09-27T16:17:41;11.08;81.54
66740;DHT22;53653;52.188;8.602;2022-09-27T16:20:17;11.04;81.87
66740;DHT22;53653;52.188;8.602;2022-09-27T16:22:42;10.97;82.27
66740;DHT22;53653;52.188;8.602;2022-09-27T16:25:08;10.96;82.51
66740;DHT22;53653;52.188;8.602;2022-09-27T16:27:33;10.84;83.08
66740;DHT22;53653;52.188;8.602;2022-09-27T16:29:59;10.76;83.79
66740;DHT22;53653;52.188;8.602;2022-09-27T16:32:25;10.68;84.18
66740;DHT22;53653;52.188;8.602;2022-09-27T16:34:51;10.61;84.34
66740;DHT22;53653;52.188;8.602;2022-09-27T16:37:16;10.60;84.65
66740;DHT22;53653;52.188;8.602;2022-09-27T16:39:42;10.53;84.89
66740;DHT22;53653;52.188;8.602;2022-09-27T16:42:07;10.52;85.16
66740;DHT22;53653;52.188;8.602;2022-09-27T16:44:34;10.50;85.26
66740;DHT22;53653;52.188;8.602;2022-09-27T16:47:00;10.55;85.04
66740;DHT22;53653;52.188;8.602;2022-09-27T16:49:26;10.55;85.10
66740;DHT22;53653;52.188;8.602;2022-09-27T16:52:10;10.50;85.39
66740;DHT22;53653;52.188;8.602;2022-09-27T16:54:35;10.49;85.47
66740;DHT22;53653;52.188;8.602;2022-09-27T16:57:00;10.50;85.50
66740;DHT22;53653;52.188;8.602;2022-09-27T16:59:26;10.49;85.67
66740;DHT22;53653;52.188;8.602;2022-09-27T17:01:52;10.52;85.54
66740;DHT22;53653;52.188;8.602;2022-09-27T17:04:21;10.59;85.24
66740;DHT22;53653;52.188;8.602;2022-09-27T17:06:47;10.60;85.28
66740;DHT22;53653;52.188;8.602;2022-09-27T17:09:12;10.59;85.54
66740;DHT22;53653;52.188;8.602;2022-09-27T17:11:37;10.56;85.62
66740;DHT22;53653;52.188;8.602;2022-09-27T17:14:03;10.61;85.46
66740;DHT22;53653;52.188;8.602;2022-09-27T17:16:28;10.61;85.30
66740;DHT22;53653;52.188;8.602;2022-09-27T17:18:54;10.59;85.57
66740;DHT22;53653;52.188;8.602;2022-09-27T17:21:19;10.55;85.84
66740;DHT22;53653;52.188;8.602;2022-09-27T17:23:45;10.56;85.51
66740;DHT22;53653;52.188;8.602;2022-09-27T17:26:19;10.52;85.49
66740;DHT22;53653;52.188;8.602;2022-09-27T17:28:45;10.50;85.60
66740;DHT22;53653;52.188;8.602;2022-09-27T17:31:12;10.46;85.75
66740;DHT22;53653;52.188;8.602;2022-09-27T17:33:42;10.42;85.89
66740;DHT22;53653;52.188;8.602;2022-09-27T17:36:11;10.43;85.67
66740;DHT22;53653;52.188;8.602;2022-09-27T17:38:37;10.40;85.72
66740;DHT22;53653;52.188;8.602;2022-09-27T17:41:05;10.45;85.30
66740;DHT22;53653;52.188;8.602;2022-09-27T17:43:32;10.42;85.40
66740;DHT22;53653;52.188;8.602;2022-09-27T17:46:07;10.39;85.63
66740;DHT22;53653;52.188;8.602;2022-09-27T17:48:34;10.33;85.63
66740;DHT22;53653;52.188;8.602;2022-09-27T17:51:18;10.26;85.90
66740;DHT22;53653;52.188;8.602;2022-09-27T17:53:44;10.25;85.94
66740;DHT22;53653;52.188;8.602;2022-09-27T17:56:10;10.25;85.94
66740;DHT22;53653;52.188;8.602;2022-09-27T17:58:37;10.28;85.76
66740;DHT22;53653;52.188;8.602;2022-09-27T18:01:03;10.30;85.39
66740;DHT22;53653;52.188;8.602;2022-09-27T18:03:31;10.28;85.38
66740;DHT22;53653;52.188;8.602;2022-09-27T18:05:56;10.26;85.04
66740;DHT22;53653;52.188;8.602;2022-09-27T18:08:23;10.28;85.20
66740;DHT22;53653;52.188;8.602;2022-09-27T18:10:48;10.22;85.36
66740;DHT22;53653;52.188;8.602;2022-09-27T18:13:15;10.20;85.05
66740;DHT22;53653;52.188;8.602;2022-09-27T18:15:40;10.20;84.97
66740;DHT22;53653;52.188;8.602;2022-09-27T18:18:07;10.16;85.15
66740;DHT22;53653;52.188;8.602;2022-09-27T18:20:33;10.13;85.05
66740;DHT22;53653;52.188;8.602;2022-09-27T18:22:58;10.12;85.23
66740;DHT22;53653;52.188;8.602;2022-09-27T18:25:24;10.05;85.07